createdAt,value
2023-07-03T00:01:19.732Z,100505.16
2023-07-03T00:04:24.865Z,100495.78
2023-07-03T00:07:27.686Z,100500.78
2023-07-03T00:10:30.576Z,100503.31
2023-07-03T00:13:34.816Z,100496.75
2023-07-03T00:16:37.575Z,100500.91
2023-07-03T00:19:40.429Z,100497.88
2023-07-03T00:22:43.362Z,100495.94
2023-07-03T00:25:47.521Z,100499.13
2023-07-03T00:28:52.034Z,100486.16
2023-07-03T00:31:54.821Z,100488.69
2023-07-03T00:34:57.912Z,100493.47
2023-07-03T00:38:00.624Z,100485.47
2023-07-03T00:41:03.525Z,100497.66
2023-07-03T00:44:10.825Z,100489.06
2023-07-03T00:47:13.662Z,100481.44
2023-07-03T00:50:16.585Z,100478.13
2023-07-03T00:53:19.281Z,100468.47
2023-07-03T00:56:22.159Z,100464.91
2023-07-03T00:59:26.312Z,100469.38
2023-07-03T01:02:36.458Z,100467.50
2023-07-03T01:05:44.574Z,100465.00
2023-07-03T01:08:50.109Z,100459.44
2023-07-03T01:11:53.429Z,100465.19
2023-07-03T01:15:00.645Z,100459.88
2023-07-03T01:18:06.040Z,100456.22
2023-07-03T01:21:16.685Z,100453.97
2023-07-03T01:24:31.828Z,100459.34
2023-07-03T01:27:37.547Z,100453.53
2023-07-03T01:30:43.333Z,100445.94
2023-07-03T01:33:46.776Z,100453.88
2023-07-03T01:36:50.440Z,100462.09
2023-07-03T01:39:56.390Z,100451.78
2023-07-03T01:42:59.928Z,100441.56
2023-07-03T01:46:03.878Z,100436.78
2023-07-03T01:49:13.027Z,100452.19
2023-07-03T01:52:20.508Z,100443.50
2023-07-03T01:55:36.154Z,100442.03
2023-07-03T01:58:45.489Z,100432.28
2023-07-03T02:01:51.686Z,100439.16
2023-07-03T02:05:00.052Z,100442.16
2023-07-03T02:08:04.907Z,100441.28
2023-07-03T02:11:16.878Z,100432.56
2023-07-03T02:14:19.793Z,100431.44
2023-07-03T02:17:22.537Z,100435.56
2023-07-03T02:20:25.400Z,100441.84
2023-07-03T02:23:28.473Z,100437.44
2023-07-03T02:26:32.533Z,100442.75
2023-07-03T02:29:35.424Z,100451.50
2023-07-03T02:32:39.879Z,100439.00
2023-07-03T02:35:42.866Z,100429.28
2023-07-03T02:38:45.758Z,100428.09
2023-07-03T02:41:51.040Z,100439.81
2023-07-03T02:44:54.514Z,100434.06
2023-07-03T02:47:57.252Z,100436.75
2023-07-03T02:51:00.316Z,100428.09
2023-07-03T02:54:05.312Z,100425.31
2023-07-03T02:57:09.439Z,100421.88
2023-07-03T03:00:14.412Z,100424.94
2023-07-03T03:03:17.240Z,100425.97
2023-07-03T03:06:20.216Z,100436.00
2023-07-03T03:09:24.422Z,100427.78
2023-07-03T03:12:28.686Z,100428.00
2023-07-03T03:15:35.458Z,100425.97
2023-07-03T03:18:38.200Z,100432.25
2023-07-03T03:21:41.001Z,100425.28
2023-07-03T03:24:44.105Z,100419.22
2023-07-03T03:27:48.179Z,100425.50
2023-07-03T03:30:51.106Z,100422.84
2023-07-03T03:33:53.910Z,100428.59
2023-07-03T03:36:57.389Z,100423.94
2023-07-03T03:40:00.504Z,100420.34
2023-07-03T03:43:04.628Z,100409.28
2023-07-03T03:46:07.586Z,100406.94
2023-07-03T03:49:11.829Z,100413.50
2023-07-03T03:52:14.750Z,100413.19
2023-07-03T03:55:17.621Z,100418.44
2023-07-03T03:58:22.482Z,100414.97
2023-07-03T04:01:25.292Z,100412.72
2023-07-03T04:04:28.102Z,100412.84
2023-07-03T04:07:30.917Z,100415.00
2023-07-03T04:10:33.797Z,100419.53
2023-07-03T04:13:37.925Z,100413.16
2023-07-03T04:16:41.050Z,100408.13
2023-07-03T04:19:43.877Z,100410.16
2023-07-03T04:22:47.390Z,100416.56
2023-07-03T04:25:51.120Z,100409.34
2023-07-03T04:28:55.545Z,100403.72
2023-07-03T04:31:58.370Z,100407.13
2023-07-03T04:35:01.944Z,100409.47
2023-07-03T04:38:05.175Z,100407.41
2023-07-03T04:41:08.753Z,100400.91
2023-07-03T04:44:13.841Z,100407.47
2023-07-03T04:47:17.743Z,100401.97
2023-07-03T04:50:26.059Z,100406.91
2023-07-03T04:53:29.253Z,100406.47
2023-07-03T04:56:34.662Z,100400.03
2023-07-03T04:59:38.771Z,100398.84
2023-07-03T05:02:41.690Z,100391.53
2023-07-03T05:05:44.409Z,100394.13
2023-07-03T05:08:48.211Z,100394.22
2023-07-03T05:11:50.981Z,100399.84
2023-07-03T05:14:56.144Z,100397.66
2023-07-03T05:17:59.688Z,100389.13
2023-07-03T05:21:02.883Z,100394.97
2023-07-03T05:24:05.969Z,100389.38
2023-07-03T05:27:08.970Z,100386.19
2023-07-03T05:30:14.215Z,100391.75
2023-07-03T05:33:17.130Z,100402.41
2023-07-03T05:36:20.222Z,100402.28
2023-07-03T05:39:22.995Z,100400.78
2023-07-03T05:42:26.173Z,100400.91
2023-07-03T05:45:30.279Z,100409.03
2023-07-03T05:48:32.983Z,100412.81
2023-07-03T05:51:35.704Z,100422.41
2023-07-03T05:54:38.530Z,100420.13
2023-07-03T05:57:41.275Z,100424.06
2023-07-03T06:00:46.385Z,100414.41
2023-07-03T06:03:49.836Z,100423.63
2023-07-03T06:06:54.448Z,100426.00
2023-07-03T06:09:58.620Z,100426.34
2023-07-03T06:13:01.436Z,100428.66
2023-07-03T06:16:06.183Z,100423.41
2023-07-03T06:19:08.947Z,100431.28
2023-07-03T06:22:11.697Z,100430.28
2023-07-03T06:25:14.558Z,100424.22
2023-07-03T06:28:17.274Z,100423.41
2023-07-03T06:31:21.553Z,100425.03
2023-07-03T06:34:24.457Z,100429.63
2023-07-03T06:37:27.206Z,100437.13
2023-07-03T06:40:29.985Z,100432.16
2023-07-03T06:43:32.833Z,100439.69
2023-07-03T06:46:36.987Z,100442.66
2023-07-03T06:49:39.892Z,100444.41
2023-07-03T06:52:43.696Z,100452.28
2023-07-03T06:55:46.573Z,100449.00
2023-07-03T06:58:49.970Z,100441.97
2023-07-03T07:01:54.254Z,100443.31
2023-07-03T07:04:59.378Z,100451.34
2023-07-03T07:08:03.638Z,100443.88
2023-07-03T07:11:10.642Z,100437.91
2023-07-03T07:14:13.419Z,100440.75
2023-07-03T07:17:17.555Z,100448.25
2023-07-03T07:20:20.671Z,100452.03
2023-07-03T07:23:23.456Z,100451.59
2023-07-03T07:26:29.591Z,100445.28
2023-07-03T07:29:32.475Z,100445.97
2023-07-03T07:32:37.248Z,100446.00
2023-07-03T07:35:40.260Z,100454.53
2023-07-03T07:38:43.421Z,100457.28
2023-07-03T07:41:46.911Z,100443.97
2023-07-03T07:44:50.279Z,100449.50
2023-07-03T07:47:54.900Z,100446.59
2023-07-03T07:50:58.124Z,100445.50
2023-07-03T07:54:01.011Z,100440.59
2023-07-03T07:57:04.050Z,100435.91
2023-07-03T08:00:08.161Z,100440.59
2023-07-03T08:03:12.498Z,100436.66
2023-07-03T08:06:16.756Z,100442.84
2023-07-03T08:09:19.450Z,100435.25
2023-07-03T08:12:22.766Z,100443.34
2023-07-03T08:15:25.718Z,100439.31
2023-07-03T08:18:29.958Z,100436.50
2023-07-03T08:21:32.877Z,100434.03
2023-07-03T08:24:35.653Z,100440.34
2023-07-03T08:27:38.474Z,100425.31
2023-07-03T08:30:41.145Z,100420.25
2023-07-03T08:33:45.276Z,100429.81
2023-07-03T08:39:53.762Z,100431.78
2023-07-03T08:42:59.331Z,100439.56
2023-07-03T08:46:03.573Z,100445.16
2023-07-03T08:49:08.754Z,100440.94
2023-07-03T08:52:11.996Z,100437.97
2023-07-03T08:55:20.684Z,100439.59
2023-07-03T08:58:23.435Z,100441.31
2023-07-03T09:01:34.218Z,100450.94
2023-07-03T09:04:53.507Z,100446.34
2023-07-03T09:08:00.403Z,100449.16
2023-07-03T09:11:04.348Z,100453.06
2023-07-03T09:14:10.653Z,100446.09
2023-07-03T09:17:14.408Z,100445.50
2023-07-03T09:20:19.152Z,100466.00
2023-07-03T09:23:26.034Z,100457.19
2023-07-03T09:26:35.356Z,100462.50
2023-07-03T09:29:40.164Z,100450.47
2023-07-03T09:32:43.045Z,100462.72
2023-07-03T09:35:48.911Z,100465.66
2023-07-03T09:38:51.991Z,100466.47
2023-07-03T09:42:06.277Z,100476.03
2023-07-03T09:45:16.249Z,100479.34
2023-07-03T09:48:24.173Z,100469.28
2023-07-03T09:51:31.278Z,100474.63
2023-07-03T09:54:34.885Z,100462.59
2023-07-03T09:57:39.818Z,100487.59
2023-07-03T10:00:49.375Z,100487.09
2023-07-03T10:04:04.216Z,100489.28
2023-07-03T10:07:27.874Z,100495.28
2023-07-03T10:13:46.602Z,100493.19
2023-07-03T10:16:51.400Z,100484.28
2023-07-03T10:19:59.261Z,100489.25
2023-07-03T10:23:06.743Z,100492.78
2023-07-03T10:26:15.289Z,100485.75
2023-07-03T10:29:24.405Z,100493.38
2023-07-03T10:32:34.253Z,100496.16
2023-07-03T10:35:37.361Z,100495.00
2023-07-03T10:38:50.845Z,100497.38
2023-07-03T10:41:59.101Z,100502.44
2023-07-03T10:45:06.374Z,100497.00
2023-07-03T10:48:15.150Z,100505.38
2023-07-03T10:51:24.974Z,100507.38
2023-07-03T10:54:33.760Z,100511.41
2023-07-03T11:01:12.833Z,100518.06
2023-07-03T11:04:25.817Z,100538.66
2023-07-03T11:07:34.940Z,100534.59
2023-07-03T11:10:49.668Z,100534.44
2023-07-03T11:14:00.961Z,100533.78
2023-07-03T11:17:14.509Z,100519.56
2023-07-03T11:20:26.074Z,100513.03
2023-07-03T11:23:36.143Z,100515.78
2023-07-03T11:29:48.202Z,100521.91
2023-07-03T11:32:52.265Z,100536.69
2023-07-03T11:35:56.274Z,100529.50
2023-07-03T11:45:32.881Z,100524.50
2023-07-03T11:48:46.514Z,100526.66
2023-07-03T11:51:49.265Z,100532.91
2023-07-03T11:58:27.454Z,100539.19
2023-07-03T12:01:32.068Z,100533.81
2023-07-03T12:04:52.718Z,100549.38
2023-07-03T12:07:55.664Z,100564.19
2023-07-03T12:11:00.329Z,100559.78
2023-07-03T12:14:04.404Z,100567.44
2023-07-03T12:17:18.124Z,100576.66
2023-07-03T12:20:23.106Z,100567.97
2023-07-03T12:23:35.683Z,100587.97
2023-07-03T12:26:51.986Z,100593.16
2023-07-03T12:29:56.107Z,100591.06
2023-07-03T12:33:00.609Z,100582.47
2023-07-03T12:36:03.398Z,100583.00
2023-07-03T12:39:14.418Z,100583.44
2023-07-03T12:42:22.519Z,100574.84
2023-07-03T12:45:28.916Z,100582.66
2023-07-03T12:48:31.657Z,100579.56
2023-07-03T12:51:39.329Z,100574.41
2023-07-03T12:54:42.143Z,100576.66
2023-07-03T12:57:46.013Z,100568.97
2023-07-03T13:01:00.672Z,100576.13
2023-07-03T13:04:04.827Z,100583.59
2023-07-03T13:07:07.866Z,100578.81
2023-07-03T13:10:15.327Z,100579.97
2023-07-03T13:13:20.777Z,100573.03
2023-07-03T13:16:24.924Z,100577.22
2023-07-03T13:19:31.612Z,100570.94
2023-07-03T13:22:34.624Z,100572.31
2023-07-03T13:25:39.635Z,100568.50
2023-07-03T13:28:52.635Z,100570.81
2023-07-03T13:32:14.352Z,100567.25
2023-07-03T13:35:28.281Z,100558.78
2023-07-03T13:38:33.000Z,100555.16
2023-07-03T13:41:36.834Z,100558.34
2023-07-03T13:44:39.662Z,100564.66
2023-07-03T13:47:44.972Z,100558.75
2023-07-03T13:50:49.168Z,100568.91
2023-07-03T13:53:56.271Z,100554.69
2023-07-03T13:57:02.590Z,100556.47
2023-07-03T14:00:06.354Z,100554.22
2023-07-03T14:03:10.980Z,100563.69
2023-07-03T14:06:14.547Z,100565.91
2023-07-03T14:09:17.638Z,100561.00
2023-07-03T14:12:20.518Z,100563.72
2023-07-03T14:15:26.570Z,100570.91
2023-07-03T14:18:30.922Z,100565.00
2023-07-03T14:21:34.589Z,100568.47
2023-07-03T14:24:37.290Z,100569.25
2023-07-03T14:27:41.195Z,100568.00
2023-07-03T14:30:44.083Z,100576.84
2023-07-03T14:33:48.323Z,100581.59
2023-07-03T14:36:51.179Z,100586.50
2023-07-03T14:39:54.055Z,100585.81
2023-07-03T14:42:56.909Z,100590.94
2023-07-03T14:45:59.799Z,100594.19
2023-07-03T14:49:04.038Z,100597.88
2023-07-03T14:52:07.232Z,100599.41
2023-07-03T14:55:10.798Z,100594.97
2023-07-03T14:58:14.034Z,100598.69
2023-07-03T15:01:16.808Z,100592.28
2023-07-03T15:04:21.236Z,100594.50
2023-07-03T15:07:24.311Z,100595.41
2023-07-03T15:10:27.346Z,100602.44
2023-07-03T15:13:30.236Z,100582.72
2023-07-03T15:16:34.875Z,100593.91
2023-07-03T15:19:39.525Z,100587.88
2023-07-03T15:22:42.363Z,100592.03
2023-07-03T15:25:45.084Z,100574.53
2023-07-03T15:28:48.036Z,100588.63
2023-07-03T15:31:51.329Z,100593.31
2023-07-03T15:34:55.957Z,100585.97
2023-07-03T15:37:58.724Z,100583.94
2023-07-03T15:41:01.668Z,100593.81
2023-07-03T15:44:04.870Z,100579.00
2023-07-03T15:47:08.685Z,100579.72
2023-07-03T15:50:13.123Z,100584.38
2023-07-03T15:53:15.990Z,100568.91
2023-07-03T15:56:19.999Z,100585.09
2023-07-03T15:59:23.318Z,100580.97
2023-07-03T16:02:26.088Z,100581.38
2023-07-03T16:05:30.350Z,100583.66
2023-07-03T16:08:35.029Z,100590.16
2023-07-03T16:11:38.308Z,100597.00
2023-07-03T16:14:41.356Z,100587.97
2023-07-03T16:17:44.153Z,100600.78
2023-07-03T16:20:56.065Z,100591.34
2023-07-03T16:23:59.778Z,100601.66
2023-07-03T16:27:04.452Z,100598.16
2023-07-03T16:30:09.072Z,100595.94
2023-07-03T16:33:11.825Z,100594.06
2023-07-03T16:36:17.448Z,100593.22
2023-07-03T16:39:20.305Z,100600.38
2023-07-03T16:42:23.070Z,100590.50
2023-07-03T16:45:25.851Z,100597.38
2023-07-03T16:48:29.827Z,100597.09
2023-07-03T16:51:34.041Z,100600.06
2023-07-03T16:54:37.200Z,100601.69
2023-07-03T16:57:39.927Z,100593.72
2023-07-03T17:00:43.054Z,100602.97
2023-07-03T17:03:46.196Z,100604.88
2023-07-03T17:06:50.739Z,100601.81
2023-07-03T17:09:53.464Z,100607.03
2023-07-03T17:12:56.409Z,100610.53
2023-07-03T17:15:59.507Z,100600.00
2023-07-03T17:19:02.245Z,100609.84
2023-07-03T17:22:07.691Z,100600.56
2023-07-03T17:25:11.170Z,100607.22
2023-07-03T17:28:15.650Z,100614.44
2023-07-03T17:31:24.647Z,100607.72
2023-07-03T17:34:27.890Z,100612.13
2023-07-03T17:37:32.073Z,100603.13
2023-07-03T17:40:34.863Z,100607.41
2023-07-03T17:43:38.035Z,100609.69
2023-07-03T17:46:41.330Z,100604.28
2023-07-03T17:49:44.072Z,100613.00
2023-07-03T17:52:48.256Z,100600.34
2023-07-03T17:55:51.411Z,100614.31
2023-07-03T17:58:54.631Z,100609.72
2023-07-03T18:01:57.980Z,100608.72
2023-07-03T18:05:00.957Z,100614.31
2023-07-03T18:08:05.536Z,100614.19
2023-07-03T18:11:08.452Z,100611.75
2023-07-03T18:14:11.354Z,100612.56
2023-07-03T18:17:14.281Z,100603.00
2023-07-03T18:20:17.078Z,100610.88
2023-07-03T18:23:21.419Z,100617.91
2023-07-03T18:26:24.206Z,100620.22
2023-07-03T18:29:27.420Z,100615.31
2023-07-03T18:32:34.792Z,100612.53
2023-07-03T18:35:38.197Z,100611.88
2023-07-03T18:38:42.865Z,100607.13
2023-07-03T18:41:45.704Z,100612.69
2023-07-03T18:44:48.516Z,100612.03
2023-07-03T18:47:51.279Z,100614.63
2023-07-03T18:50:54.190Z,100616.94
2023-07-03T18:53:58.425Z,100615.44
2023-07-03T18:57:01.340Z,100613.78
2023-07-03T19:00:05.380Z,100612.00
2023-07-03T19:03:08.247Z,100617.41
2023-07-03T19:06:15.375Z,100620.00
2023-07-03T19:09:19.941Z,100623.13
2023-07-03T19:12:24.556Z,100628.84
2023-07-03T19:15:27.490Z,100629.66
2023-07-03T19:18:31.060Z,100633.09
2023-07-03T19:21:33.905Z,100636.22
2023-07-03T19:24:39.447Z,100636.06
2023-07-03T19:27:42.224Z,100636.72
2023-07-03T19:30:52.456Z,100639.06
2023-07-03T19:33:56.168Z,100640.22
2023-07-03T19:37:00.530Z,100645.56
2023-07-03T19:40:08.498Z,100643.22
2023-07-03T19:43:11.597Z,100644.84
2023-07-03T19:46:14.474Z,100641.06
2023-07-03T19:49:17.205Z,100647.91
2023-07-03T19:52:22.266Z,100651.66
2023-07-03T19:55:28.066Z,100653.91
2023-07-03T19:58:31.276Z,100655.22
2023-07-03T20:01:34.328Z,100655.53
2023-07-03T20:04:37.910Z,100660.94
2023-07-03T20:07:41.018Z,100659.59
2023-07-03T20:10:47.706Z,100660.56
2023-07-03T20:13:51.153Z,100659.25
2023-07-03T20:16:54.295Z,100653.19
2023-07-03T20:19:57.646Z,100652.03
2023-07-03T20:23:00.581Z,100641.22
2023-07-03T20:26:05.081Z,100648.22
2023-07-03T20:29:07.841Z,100643.81
2023-07-03T20:32:11.102Z,100636.44
2023-07-03T20:35:13.833Z,100618.75
2023-07-03T20:38:18.928Z,100629.53
2023-07-03T20:41:24.076Z,100624.63
2023-07-03T20:44:27.060Z,100619.38
2023-07-03T20:47:31.877Z,100635.53
2023-07-03T20:50:34.804Z,100635.69
2023-07-03T20:53:59.480Z,100629.63
2023-07-03T20:57:05.401Z,100618.81
2023-07-03T21:00:13.681Z,100618.78
2023-07-03T21:03:16.562Z,100622.69
2023-07-03T21:06:21.096Z,100619.72
2023-07-03T21:09:24.389Z,100624.25
2023-07-03T21:12:28.657Z,100619.03
2023-07-03T21:15:34.329Z,100611.81
2023-07-03T21:18:37.907Z,100617.69
2023-07-03T21:21:41.696Z,100616.69
2023-07-03T21:24:44.727Z,100611.47
2023-07-03T21:27:48.972Z,100615.09
2023-07-03T21:30:52.055Z,100611.50
2023-07-03T21:33:55.246Z,100613.56
2023-07-03T21:36:58.002Z,100610.47
2023-07-03T21:40:04.024Z,100611.94
2023-07-03T21:43:08.139Z,100610.44
2023-07-03T21:46:14.691Z,100604.56
2023-07-03T21:49:18.088Z,100597.84
2023-07-03T21:52:20.931Z,100598.84
2023-07-03T21:55:23.856Z,100597.72
2023-07-03T21:58:27.984Z,100598.34
2023-07-03T22:01:34.402Z,100599.25
2023-07-03T22:04:37.512Z,100592.66
2023-07-03T22:07:40.311Z,100589.13
2023-07-03T22:10:43.176Z,100591.41
2023-07-03T22:13:47.516Z,100589.13
2023-07-03T22:16:50.407Z,100585.31
2023-07-03T22:19:53.575Z,100587.03
2023-07-03T22:22:56.313Z,100584.16
2023-07-03T22:26:00.576Z,100576.31
2023-07-03T22:29:04.710Z,100562.75
2023-07-03T22:32:08.876Z,100574.84
2023-07-03T22:35:12.345Z,100577.81
2023-07-03T22:38:15.199Z,100576.16
2023-07-03T22:41:18.114Z,100577.13
2023-07-03T22:44:22.250Z,100567.25
2023-07-03T22:47:25.262Z,100566.19
2023-07-03T22:50:28.586Z,100569.03
2023-07-03T22:53:31.317Z,100568.56
2023-07-03T22:56:34.148Z,100564.13
2023-07-03T22:59:38.240Z,100555.06
2023-07-03T23:02:41.181Z,100552.25
2023-07-03T23:05:46.018Z,100562.97
2023-07-03T23:08:50.517Z,100571.91
2023-07-03T23:11:54.361Z,100562.97
2023-07-03T23:14:58.773Z,100553.47
2023-07-03T23:18:01.642Z,100555.06
2023-07-03T23:21:10.355Z,100554.25
2023-07-03T23:24:13.088Z,100551.47
2023-07-03T23:27:20.573Z,100555.06
2023-07-03T23:30:24.672Z,100543.28
2023-07-03T23:33:28.265Z,100546.88
2023-07-03T23:36:31.609Z,100540.81
2023-07-03T23:39:34.972Z,100544.50
2023-07-03T23:42:37.854Z,100540.53
2023-07-03T23:45:44.159Z,100541.50
2023-07-03T23:48:46.994Z,100535.59
2023-07-03T23:51:53.171Z,100533.28
2023-07-03T23:54:58.794Z,100539.47
2023-07-03T23:58:01.768Z,100536.16
